Time;durP1;ratioP1;P1;durP2;ratioP2;P2;SDS_P1;SDS_P2;PMS_P1;PMS_P2;Temp;Humidity;BMP_temperature;BMP_pressure;BME280_temperature;BME280_humidity;BME280_pressure;Samples;Min_cycle;Max_cycle;Signal;HPM_P1;HPM_P2
2022/09/19 00:01:49;;;;;;;11.20;5.90;;;;;;;;;;5038285;28;20224;-79
2022/09/19 00:04:17;;;;;;;14.23;5.90;;;;;;;;;;5035304;28;20220;-81
2022/09/19 00:06:45;;;;;;;16.10;5.90;;;;;;;;;;5037743;28;20614;-81
2022/09/19 00:09:14;;;;;;;17.60;5.60;;;;;;;;;;5039002;28;20199;-81
2022/09/19 00:11:42;;;;;;;14.00;6.17;;;;;;;;;;5040064;28;20211;-80
2022/09/19 00:14:10;;;;;;;11.93;5.80;;;;;;;;;;5040345;28;20321;-81
2022/09/19 00:16:39;;;;;;;12.07;6.20;;;;;;;;;;5037197;28;20325;-82
2022/09/19 00:19:09;;;;;;;17.67;6.60;;;;;;;;;;5036486;28;20228;-79
2022/09/19 00:21:38;;;;;;;12.70;6.03;;;;;;;;;;5040614;28;20215;-81
2022/09/19 00:26:55;;;;;;;15.07;5.83;;;;;;;;;;5032287;28;20257;-81
2022/09/19 00:29:22;;;;;;;19.77;5.77;;;;;;;;;;5032739;28;20200;-81
2022/09/19 00:31:50;;;;;;;13.10;4.83;;;;;;;;;;5034705;28;20211;-81
2022/09/19 00:34:19;;;;;;;15.67;5.50;;;;;;;;;;5032500;28;20223;-80
2022/09/19 00:36:47;;;;;;;17.33;5.97;;;;;;;;;;5034989;28;20224;-80
2022/09/19 00:39:15;;;;;;;15.37;5.97;;;;;;;;;;5033354;28;20215;-80
2022/09/19 00:41:59;;;;;;;15.27;5.60;;;;;;;;;;5123065;27;20278;-80
2022/09/19 00:44:45;;;;;;;11.47;5.97;;;;;;;;;;5101050;28;20260;-79
2022/09/19 00:47:14;;;;;;;13.13;5.57;;;;;;;;;;5107250;28;20287;-79
2022/09/19 00:49:44;;;;;;;13.63;6.10;;;;;;;;;;5137859;22;20189;-87
2022/09/19 00:52:15;;;;;;;16.03;5.87;;;;;;;;;;5075417;28;20260;-85
2022/09/19 00:54:45;;;;;;;12.13;5.97;;;;;;;;;;5071960;28;20202;-87
2022/09/19 00:57:14;;;;;;;12.87;6.30;;;;;;;;;;5071281;28;20283;-84
2022/09/19 00:59:43;;;;;;;16.97;6.80;;;;;;;;;;5076341;28;20660;-86
2022/09/19 01:02:11;;;;;;;14.50;6.53;;;;;;;;;;5087985;28;20262;-85
2022/09/19 01:04:41;;;;;;;19.20;6.70;;;;;;;;;;5085630;28;20840;-87
2022/09/19 01:07:13;;;;;;;17.80;6.90;;;;;;;;;;5089145;28;20206;-85
2022/09/19 01:09:43;;;;;;;15.53;6.50;;;;;;;;;;5087293;28;20225;-88
2022/09/19 01:12:20;;;;;;;15.20;5.80;;;;;;;;;;5087150;28;20206;-88
2022/09/19 01:14:56;;;;;;;14.53;5.93;;;;;;;;;;5089525;28;20201;-86
2022/09/19 01:17:27;;;;;;;12.60;5.77;;;;;;;;;;5085808;28;20529;-84
2022/09/19 01:20:05;;;;;;;15.23;6.50;;;;;;;;;;5084401;28;20221;-85
2022/09/19 01:22:43;;;;;;;16.37;6.20;;;;;;;;;;5099207;28;20208;-86
2022/09/19 01:25:13;;;;;;;15.07;6.27;;;;;;;;;;5091549;28;20239;-87
2022/09/19 01:28:08;;;;;;;13.40;5.93;;;;;;;;;;5094008;28;20214;-86
2022/09/19 01:30:36;;;;;;;14.43;6.07;;;;;;;;;;5089245;28;20225;-86
2022/09/19 01:33:06;;;;;;;20.67;6.43;;;;;;;;;;5087172;28;20202;-87
2022/09/19 01:35:37;;;;;;;16.87;6.27;;;;;;;;;;5094853;28;20258;-88
2022/09/19 01:38:08;;;;;;;14.57;5.93;;;;;;;;;;5109086;28;20193;-87
2022/09/19 01:40:37;;;;;;;12.73;5.63;;;;;;;;;;5105919;27;20274;-83
2022/09/19 01:43:06;;;;;;;13.40;6.30;;;;;;;;;;5088848;28;20214;-83
2022/09/19 01:45:36;;;;;;;18.90;6.07;;;;;;;;;;5085870;28;20232;-86
2022/09/19 01:48:07;;;;;;;13.10;5.70;;;;;;;;;;5100029;28;20202;-85
2022/09/19 01:50:48;;;;;;;17.20;6.50;;;;;;;;;;5102018;28;20292;-85
2022/09/19 01:53:19;;;;;;;13.37;5.90;;;;;;;;;;5087134;28;20213;-85
2022/09/19 01:55:51;;;;;;;15.33;5.63;;;;;;;;;;5083551;28;20265;-85
2022/09/19 01:58:22;;;;;;;14.13;6.10;;;;;;;;;;5087636;28;20205;-87
2022/09/19 02:00:54;;;;;;;14.33;6.63;;;;;;;;;;5074893;28;20218;-86
2022/09/19 02:03:27;;;;;;;20.03;5.97;;;;;;;;;;5083950;28;20335;-85
2022/09/19 02:05:56;;;;;;;18.47;6.73;;;;;;;;;;5086596;28;20216;-86
2022/09/19 02:08:28;;;;;;;18.77;6.37;;;;;;;;;;5086470;28;20224;-86
2022/09/19 02:10:57;;;;;;;19.83;6.10;;;;;;;;;;5085488;28;20218;-83
2022/09/19 02:13:27;;;;;;;14.67;5.90;;;;;;;;;;5081133;28;20206;-83
2022/09/19 02:15:57;;;;;;;24.07;6.47;;;;;;;;;;5075885;28;20311;-82
2022/09/19 02:18:30;;;;;;;14.27;6.20;;;;;;;;;;5079168;28;20596;-85
2022/09/19 02:21:00;;;;;;;12.40;5.67;;;;;;;;;;5089141;28;20232;-85
2022/09/19 02:23:30;;;;;;;14.20;5.37;;;;;;;;;;5087301;28;20230;-86
2022/09/19 02:25:59;;;;;;;13.57;6.63;;;;;;;;;;5090199;28;20194;-87
2022/09/19 02:28:31;;;;;;;18.83;6.07;;;;;;;;;;5089301;28;20202;-85
2022/09/19 02:30:59;;;;;;;12.50;6.30;;;;;;;;;;5092492;28;20264;-88
2022/09/19 02:33:27;;;;;;;16.43;5.90;;;;;;;;;;5091491;28;20260;-86
2022/09/19 02:35:59;;;;;;;15.27;5.97;;;;;;;;;;5090100;28;20221;-87
2022/09/19 02:38:33;;;;;;;17.97;5.50;;;;;;;;;;5087355;28;20202;-84
2022/09/19 02:41:03;;;;;;;21.20;6.37;;;;;;;;;;5085760;28;20236;-85
2022/09/19 02:43:36;;;;;;;18.57;6.27;;;;;;;;;;5081590;28;20203;-86
2022/09/19 02:46:07;;;;;;;16.97;5.77;;;;;;;;;;5086312;28;20241;-87
2022/09/19 02:48:41;;;;;;;19.57;6.50;;;;;;;;;;5082250;28;20202;-86
2022/09/19 02:51:12;;;;;;;17.57;6.07;;;;;;;;;;5076832;28;20222;-87
2022/09/19 02:53:42;;;;;;;13.50;5.53;;;;;;;;;;5082674;28;20270;-86
2022/09/19 02:56:13;;;;;;;16.10;6.17;;;;;;;;;;5082366;28;20198;-86
2022/09/19 02:58:45;;;;;;;19.40;5.67;;;;;;;;;;5079214;28;20210;-87
2022/09/19 03:01:16;;;;;;;21.17;6.50;;;;;;;;;;5083687;28;20636;-85
2022/09/19 03:06:33;;;;;;;18.03;6.70;;;;;;;;;;5079155;28;20201;-87
2022/09/19 03:09:01;;;;;;;17.33;5.77;;;;;;;;;;5085450;28;20275;-87
2022/09/19 03:11:32;;;;;;;16.77;5.97;;;;;;;;;;5084176;28;20226;-87
2022/09/19 03:14:02;;;;;;;12.93;6.30;;;;;;;;;;5082964;28;20230;-87
2022/09/19 03:16:34;;;;;;;13.60;6.10;;;;;;;;;;5088310;28;20190;-86
2022/09/19 03:19:03;;;;;;;21.37;5.53;;;;;;;;;;5085707;28;20210;-85
2022/09/19 03:21:31;;;;;;;11.00;5.40;;;;;;;;;;5084938;28;20825;-86
2022/09/19 03:24:01;;;;;;;15.10;5.90;;;;;;;;;;5085379;28;20209;-88
2022/09/19 03:26:30;;;;;;;17.93;6.17;;;;;;;;;;5087013;28;20202;-85
2022/09/19 03:29:02;;;;;;;11.60;5.60;;;;;;;;;;5085672;28;20240;-87
2022/09/19 03:31:33;;;;;;;21.37;5.87;;;;;;;;;;5087105;28;20283;-87
2022/09/19 03:34:02;;;;;;;20.27;5.77;;;;;;;;;;5086027;28;20236;-86
2022/09/19 03:36:34;;;;;;;9.63;5.13;;;;;;;;;;5087471;28;20210;-85
2022/09/19 03:39:02;;;;;;;10.23;5.40;;;;;;;;;;5082969;28;20217;-87
2022/09/19 03:41:31;;;;;;;14.67;5.63;;;;;;;;;;5080906;28;20229;-86
2022/09/19 03:44:03;;;;;;;20.20;6.30;;;;;;;;;;5081626;28;20229;-84
2022/09/19 03:46:38;;;;;;;19.17;6.43;;;;;;;;;;5087640;28;20218;-85
2022/09/19 03:49:05;;;;;;;16.17;5.90;;;;;;;;;;5081071;28;20232;-86
2022/09/19 03:51:35;;;;;;;9.80;5.87;;;;;;;;;;5085462;28;20276;-84
2022/09/19 03:54:03;;;;;;;16.90;5.90;;;;;;;;;;5079344;28;20206;-87
2022/09/19 03:56:30;;;;;;;16.43;6.13;;;;;;;;;;5084294;28;20639;-86
2022/09/19 03:58:58;;;;;;;13.40;5.67;;;;;;;;;;5081481;28;20199;-87
2022/09/19 04:01:26;;;;;;;15.30;6.00;;;;;;;;;;5083405;28;20222;-85
2022/09/19 04:03:55;;;;;;;18.70;6.40;;;;;;;;;;5081708;28;20210;-88
2022/09/19 04:06:22;;;;;;;16.30;5.60;;;;;;;;;;5081032;28;20237;-85
2022/09/19 04:08:50;;;;;;;12.23;6.00;;;;;;;;;;5085292;28;20226;-86
2022/09/19 04:11:18;;;;;;;16.07;6.97;;;;;;;;;;5085888;28;20234;-86
2022/09/19 04:13:50;;;;;;;20.17;6.90;;;;;;;;;;5086633;28;20841;-86
2022/09/19 04:16:18;;;;;;;19.33;7.20;;;;;;;;;;5085418;28;20221;-84
2022/09/19 04:18:47;;;;;;;21.00;7.53;;;;;;;;;;5085356;28;20232;-85
2022/09/19 04:21:17;;;;;;;16.43;6.70;;;;;;;;;;5082016;28;20226;-85
2022/09/19 04:23:44;;;;;;;18.50;6.70;;;;;;;;;;5083007;28;20263;-85
2022/09/19 04:26:12;;;;;;;21.80;6.77;;;;;;;;;;5077509;28;20205;-85
2022/09/19 04:28:39;;;;;;;16.77;7.00;;;;;;;;;;5082560;28;20191;-85
2022/09/19 04:31:08;;;;;;;15.50;6.83;;;;;;;;;;5079481;28;20223;-85
2022/09/19 04:33:36;;;;;;;11.13;6.53;;;;;;;;;;5081582;28;20199;-85
2022/09/19 04:36:05;;;;;;;19.60;6.20;;;;;;;;;;5078882;28;20220;-86
2022/09/19 04:38:34;;;;;;;12.83;6.50;;;;;;;;;;5079498;28;20270;-85
2022/09/19 04:41:02;;;;;;;14.87;6.30;;;;;;;;;;5075663;28;20289;-87
2022/09/19 04:43:32;;;;;;;15.37;6.53;;;;;;;;;;5083901;28;20264;-87
2022/09/19 04:46:01;;;;;;;17.47;6.27;;;;;;;;;;5084565;28;20574;-87
2022/09/19 04:48:31;;;;;;;18.73;7.03;;;;;;;;;;5087151;28;20213;-84
2022/09/19 04:50:59;;;;;;;17.07;7.77;;;;;;;;;;5087278;28;20222;-84
2022/09/19 04:53:31;;;;;;;19.43;7.10;;;;;;;;;;5087092;28;20221;-86
2022/09/19 04:56:03;;;;;;;17.43;7.00;;;;;;;;;;5087377;28;20194;-85
2022/09/19 04:58:31;;;;;;;19.47;7.30;;;;;;;;;;5088488;28;20266;-86
2022/09/19 05:00:58;;;;;;;21.83;7.60;;;;;;;;;;5079838;28;20286;-85
2022/09/19 05:03:27;;;;;;;16.50;7.57;;;;;;;;;;5077908;28;20292;-84
2022/09/19 05:05:55;;;;;;;21.60;7.03;;;;;;;;;;5075864;28;20198;-85
2022/09/19 05:08:25;;;;;;;15.10;7.30;;;;;;;;;;5080623;28;20209;-86
2022/09/19 05:10:54;;;;;;;16.27;7.57;;;;;;;;;;5082306;28;20739;-85
2022/09/19 05:13:23;;;;;;;21.60;8.33;;;;;;;;;;5082277;28;20202;-86
2022/09/19 05:15:51;;;;;;;21.43;8.10;;;;;;;;;;5081645;28;20206;-84
2022/09/19 05:18:20;;;;;;;13.67;7.90;;;;;;;;;;5084063;28;20194;-86
2022/09/19 05:20:47;;;;;;;19.30;8.13;;;;;;;;;;5081053;28;20237;-85
2022/09/19 05:23:15;;;;;;;16.97;8.20;;;;;;;;;;5082849;28;20226;-86
2022/09/19 05:25:43;;;;;;;20.50;8.87;;;;;;;;;;5083367;28;20198;-86
2022/09/19 05:28:10;;;;;;;22.13;9.30;;;;;;;;;;5083714;28;20206;-85
2022/09/19 05:30:40;;;;;;;27.97;8.33;;;;;;;;;;5086005;28;20232;-86
2022/09/19 05:33:08;;;;;;;21.33;8.87;;;;;;;;;;5086806;28;20231;-85
2022/09/19 05:35:35;;;;;;;22.00;8.80;;;;;;;;;;5090384;28;20244;-85
2022/09/19 05:38:03;;;;;;;19.20;8.40;;;;;;;;;;5084877;28;20610;-85
2022/09/19 05:40:30;;;;;;;18.50;8.77;;;;;;;;;;5087876;28;20226;-85
2022/09/19 05:43:03;;;;;;;24.73;9.57;;;;;;;;;;5085760;28;20222;-86
2022/09/19 05:45:31;;;;;;;25.00;9.63;;;;;;;;;;5085988;28;20202;-85
2022/09/19 05:48:04;;;;;;;22.57;9.00;;;;;;;;;;5086547;28;20209;-85
2022/09/19 05:50:31;;;;;;;18.77;9.20;;;;;;;;;;5087437;28;20237;-86
2022/09/19 05:55:47;;;;;;;21.87;8.80;;;;;;;;;;5077834;28;20198;-86
2022/09/19 05:58:17;;;;;;;14.33;7.87;;;;;;;;;;5089024;28;20194;-85
2022/09/19 06:00:44;;;;;;;21.20;8.83;;;;;;;;;;5084253;28;20297;-85
2022/09/19 06:03:16;;;;;;;24.13;8.63;;;;;;;;;;5088177;28;20222;-85
2022/09/19 06:05:45;;;;;;;15.70;8.47;;;;;;;;;;5082489;28;20225;-85
2022/09/19 06:08:12;;;;;;;21.80;8.27;;;;;;;;;;5082579;28;20217;-85
2022/09/19 06:10:41;;;;;;;20.87;8.47;;;;;;;;;;5081965;28;20286;-84
2022/09/19 06:13:12;;;;;;;26.13;8.10;;;;;;;;;;5082922;28;20305;-85
2022/09/19 06:15:39;;;;;;;16.93;7.13;;;;;;;;;;5085291;28;20218;-85
2022/09/19 06:18:09;;;;;;;18.87;7.90;;;;;;;;;;5083789;28;20206;-85
2022/09/19 06:20:38;;;;;;;18.70;8.40;;;;;;;;;;5082452;28;20214;-86
2022/09/19 06:23:06;;;;;;;21.07;7.10;;;;;;;;;;5081136;28;20303;-85
2022/09/19 06:25:36;;;;;;;17.57;7.80;;;;;;;;;;5087074;28;20209;-85
2022/09/19 06:28:05;;;;;;;15.33;7.70;;;;;;;;;;5085502;28;20657;-85
2022/09/19 06:30:33;;;;;;;16.33;7.40;;;;;;;;;;5084532;28;20226;-85
2022/09/19 06:33:03;;;;;;;16.80;6.87;;;;;;;;;;5084838;28;20669;-85
2022/09/19 06:35:31;;;;;;;11.33;7.07;;;;;;;;;;5080315;28;20198;-85
2022/09/19 06:38:00;;;;;;;15.70;6.63;;;;;;;;;;5082846;28;20573;-85
2022/09/19 06:40:28;;;;;;;17.07;7.10;;;;;;;;;;5080201;28;20239;-86
2022/09/19 06:43:01;;;;;;;11.63;5.90;;;;;;;;;;5077726;28;20218;-84
2022/09/19 06:45:29;;;;;;;11.93;5.90;;;;;;;;;;5079317;28;20202;-85
2022/09/19 06:47:59;;;;;;;10.27;5.50;;;;;;;;;;5075283;28;20211;-84
2022/09/19 06:50:27;;;;;;;12.87;5.47;;;;;;;;;;5081536;28;20240;-84
2022/09/19 06:52:57;;;;;;;10.57;5.20;;;;;;;;;;5075824;28;20263;-84
2022/09/19 06:55:27;;;;;;;10.03;5.10;;;;;;;;;;5076629;28;20237;-86
2022/09/19 06:57:56;;;;;;;11.10;5.10;;;;;;;;;;5078262;28;20770;-85
2022/09/19 07:00:26;;;;;;;11.73;4.87;;;;;;;;;;5079956;28;20230;-87
2022/09/19 07:02:55;;;;;;;7.90;4.87;;;;;;;;;;5077076;28;20225;-85
2022/09/19 07:05:24;;;;;;;7.97;5.23;;;;;;;;;;5080411;28;20629;-86
2022/09/19 07:07:52;;;;;;;11.07;6.33;;;;;;;;;;5078355;28;20994;-85
2022/09/19 07:10:20;;;;;;;18.83;7.07;;;;;;;;;;5079560;28;20214;-86
2022/09/19 07:12:56;;;;;;;21.37;6.43;;;;;;;;;;5081430;28;20203;-87
2022/09/19 07:15:24;;;;;;;12.00;6.70;;;;;;;;;;5079109;28;20657;-86
2022/09/19 07:17:55;;;;;;;12.70;6.63;;;;;;;;;;5084062;28;20222;-86
2022/09/19 07:20:26;;;;;;;14.03;7.07;;;;;;;;;;5084500;28;20225;-86
2022/09/19 07:23:00;;;;;;;16.90;6.87;;;;;;;;;;5082835;28;20226;-86
2022/09/19 07:25:27;;;;;;;13.00;6.80;;;;;;;;;;5082026;28;20210;-83
2022/09/19 07:28:00;;;;;;;11.77;6.83;;;;;;;;;;5081519;28;20232;-83
2022/09/19 07:30:28;;;;;;;13.77;6.47;;;;;;;;;;5082091;28;20237;-85
2022/09/19 07:33:10;;;;;;;15.47;6.40;;;;;;;;;;5083586;28;20198;-84
2022/09/19 08:34:23;;;;;;;15.20;7.83;;;;;;;;;;4982396;28;20232;-81
2022/09/19 08:36:53;;;;;;;17.63;6.57;;;;;;;;;;4985758;28;20209;-82
2022/09/19 08:39:22;;;;;;;15.90;7.00;;;;;;;;;;4986277;28;20331;-81
2022/09/19 08:44:45;;;;;;;13.97;7.27;;;;;;;;;;4961374;28;20268;-82
2022/09/19 08:47:17;;;;;;;15.57;7.13;;;;;;;;;;4963295;28;20208;-82
2022/09/19 08:49:50;;;;;;;13.20;7.83;;;;;;;;;;4964974;28;20202;-82
2022/09/19 08:52:30;;;;;;;14.53;7.50;;;;;;;;;;4963862;28;20243;-82
2022/09/19 08:55:02;;;;;;;16.97;6.83;;;;;;;;;;4961669;28;20219;-82
2022/09/19 08:57:46;;;;;;;14.40;6.57;;;;;;;;;;4963980;28;20205;-82
2022/09/19 09:00:19;;;;;;;18.33;6.37;;;;;;;;;;4960359;28;20422;-84
2022/09/19 09:02:50;;;;;;;11.73;6.57;;;;;;;;;;4963295;28;20663;-82
2022/09/19 09:05:28;;;;;;;17.87;7.00;;;;;;;;;;4982469;28;20205;-82
2022/09/19 09:08:00;;;;;;;15.83;6.80;;;;;;;;;;4989134;28;20201;-82
2022/09/19 09:10:36;;;;;;;20.00;7.03;;;;;;;;;;4988518;28;20245;-81
2022/09/19 09:13:15;;;;;;;18.43;6.90;;;;;;;;;;4976784;28;20205;-80
2022/09/19 09:15:49;;;;;;;16.17;6.27;;;;;;;;;;4965225;28;20666;-82
2022/09/19 09:21:16;;;;;;;18.90;7.43;;;;;;;;;;4961493;28;20236;-82
2022/09/19 09:23:46;;;;;;;12.93;6.13;;;;;;;;;;4965963;28;20340;-81
2022/09/19 09:26:26;;;;;;;14.77;6.27;;;;;;;;;;4971771;28;20276;-82
2022/09/19 09:29:02;;;;;;;14.90;5.70;;;;;;;;;;4968390;28;20220;-83
2022/09/19 09:31:35;;;;;;;16.23;5.40;;;;;;;;;;4965181;28;20230;-83
2022/09/19 09:37:11;;;;;;;12.70;6.20;;;;;;;;;;4969370;28;20221;-83
2022/09/19 09:39:59;;;;;;;13.87;6.07;;;;;;;;;;4966342;28;20647;-83
2022/09/19 09:42:30;;;;;;;14.27;6.00;;;;;;;;;;4968173;28;20319;-83
2022/09/19 09:45:05;;;;;;;17.43;5.63;;;;;;;;;;4965744;28;20296;-83
2022/09/19 09:47:44;;;;;;;12.60;4.80;;;;;;;;;;4964866;28;20309;-82
2022/09/19 09:50:25;;;;;;;14.13;5.00;;;;;;;;;;4970088;28;20705;-83
2022/09/19 09:52:59;;;;;;;18.23;5.23;;;;;;;;;;4970341;28;20252;-82
2022/09/19 09:58:27;;;;;;;17.13;4.60;;;;;;;;;;4969528;28;20583;-82
2022/09/19 10:03:49;;;;;;;16.30;5.53;;;;;;;;;;4973355;28;20304;-82
2022/09/19 10:06:18;;;;;;;17.03;4.70;;;;;;;;;;4972244;28;20301;-82
2022/09/19 10:08:51;;;;;;;14.73;4.90;;;;;;;;;;4968034;28;20222;-82
2022/09/19 10:11:19;;;;;;;14.63;4.30;;;;;;;;;;4968878;28;20329;-81
2022/09/19 10:13:49;;;;;;;16.03;4.07;;;;;;;;;;4970447;28;20210;-82
2022/09/19 10:16:19;;;;;;;8.47;3.90;;;;;;;;;;4969176;28;20300;-83
2022/09/19 10:18:48;;;;;;;13.60;3.87;;;;;;;;;;4971430;28;20323;-81
2022/09/19 10:21:15;;;;;;;10.17;3.53;;;;;;;;;;4969967;28;20222;-82
2022/09/19 10:23:45;;;;;;;12.00;3.53;;;;;;;;;;4971194;28;20235;-83
2022/09/19 10:26:16;;;;;;;10.43;3.17;;;;;;;;;;4973472;28;20237;-82
2022/09/19 10:28:48;;;;;;;15.03;3.47;;;;;;;;;;4971510;28;20604;-81
2022/09/19 10:31:26;;;;;;;13.77;3.50;;;;;;;;;;4970509;28;20232;-82
2022/09/19 10:33:53;;;;;;;11.80;3.50;;;;;;;;;;4968781;28;20227;-83
2022/09/19 10:36:25;;;;;;;11.07;3.20;;;;;;;;;;4970657;28;20214;-82
2022/09/19 10:38:58;;;;;;;7.13;2.60;;;;;;;;;;4971342;28;20217;-83
2022/09/19 10:41:28;;;;;;;11.23;3.07;;;;;;;;;;4969069;28;20261;-82
2022/09/19 10:43:57;;;;;;;9.20;2.90;;;;;;;;;;4972050;28;20252;-82
2022/09/19 10:46:34;;;;;;;9.67;2.40;;;;;;;;;;4975364;28;20350;-82
2022/09/19 10:49:02;;;;;;;13.33;2.60;;;;;;;;;;4972099;28;20639;-82
2022/09/19 10:51:33;;;;;;;11.07;2.70;;;;;;;;;;4966960;28;20218;-83
2022/09/19 10:54:01;;;;;;;14.50;2.67;;;;;;;;;;4972615;28;20205;-82
2022/09/19 10:56:34;;;;;;;11.77;2.80;;;;;;;;;;4972825;28;20214;-83
2022/09/19 10:59:04;;;;;;;9.03;2.73;;;;;;;;;;4970101;28;20225;-82
2022/09/19 11:01:31;;;;;;;8.87;2.53;;;;;;;;;;4966016;28;20256;-83
2022/09/19 11:03:59;;;;;;;10.50;2.10;;;;;;;;;;4968033;28;20228;-83
2022/09/19 11:06:27;;;;;;;10.83;2.60;;;;;;;;;;4967554;28;20232;-82
2022/09/19 11:08:54;;;;;;;9.30;2.93;;;;;;;;;;4972090;28;20231;-82
2022/09/19 11:11:36;;;;;;;10.10;2.30;;;;;;;;;;4970772;28;20229;-83
2022/09/19 11:14:16;;;;;;;16.17;2.73;;;;;;;;;;4970349;28;20803;-82
2022/09/19 11:17:00;;;;;;;9.33;2.57;;;;;;;;;;4970779;28;20228;-83
2022/09/19 11:19:35;;;;;;;7.03;2.50;;;;;;;;;;4974221;28;20209;-82
2022/09/19 11:22:07;;;;;;;12.47;2.40;;;;;;;;;;4971321;28;20224;-82
2022/09/19 11:24:40;;;;;;;10.60;2.27;;;;;;;;;;4967269;28;20281;-83
2022/09/19 11:27:29;;;;;;;8.37;1.87;;;;;;;;;;4969982;28;20210;-83
2022/09/19 11:30:03;;;;;;;11.97;2.70;;;;;;;;;;4968138;28;20236;-82
2022/09/19 11:32:35;;;;;;;6.20;2.27;;;;;;;;;;4971344;28;20744;-83
2022/09/19 11:35:07;;;;;;;11.63;2.50;;;;;;;;;;4967579;28;20249;-82
2022/09/19 11:37:41;;;;;;;7.53;2.93;;;;;;;;;;4970995;28;20320;-82
2022/09/19 11:40:19;;;;;;;10.47;2.47;;;;;;;;;;4968322;28;20216;-82
2022/09/19 11:42:53;;;;;;;8.63;2.67;;;;;;;;;;4969677;28;20581;-82
2022/09/19 11:45:22;;;;;;;11.10;2.60;;;;;;;;;;4966917;28;20205;-82
2022/09/19 11:47:59;;;;;;;5.67;2.17;;;;;;;;;;4969951;28;20224;-82
2022/09/19 11:50:48;;;;;;;9.40;2.57;;;;;;;;;;4966807;28;20312;-82
2022/09/19 11:53:30;;;;;;;6.63;2.40;;;;;;;;;;4959037;28;20240;-82
2022/09/19 11:56:01;;;;;;;12.97;3.00;;;;;;;;;;4968784;28;20586;-82
2022/09/19 11:58:32;;;;;;;9.83;2.40;;;;;;;;;;4968686;28;20213;-82
2022/09/19 12:01:05;;;;;;;11.00;2.87;;;;;;;;;;4970034;28;20281;-83
2022/09/19 12:03:39;;;;;;;13.83;2.50;;;;;;;;;;4966136;28;20320;-82
2022/09/19 12:06:14;;;;;;;9.17;2.63;;;;;;;;;;4968793;28;20241;-82
2022/09/19 12:08:49;;;;;;;6.43;2.40;;;;;;;;;;4969995;28;20733;-82
2022/09/19 12:11:20;;;;;;;10.83;2.20;;;;;;;;;;4968513;28;20312;-81
2022/09/19 12:13:50;;;;;;;12.70;2.70;;;;;;;;;;4970910;28;20237;-82
2022/09/19 12:16:21;;;;;;;6.17;2.20;;;;;;;;;;4967913;28;20213;-82
2022/09/19 12:18:52;;;;;;;7.50;2.50;;;;;;;;;;4967001;28;20206;-81
2022/09/19 12:21:22;;;;;;;8.20;2.37;;;;;;;;;;4965499;28;20247;-82
2022/09/19 12:26:44;;;;;;;5.63;2.93;;;;;;;;;;4965353;28;20200;-83
2022/09/19 12:29:17;;;;;;;8.03;2.33;;;;;;;;;;4966011;28;20489;-82
2022/09/19 12:31:48;;;;;;;8.27;2.53;;;;;;;;;;4964411;28;20229;-83
2022/09/19 12:34:26;;;;;;;6.93;2.60;;;;;;;;;;4966582;28;20216;-83
2022/09/19 12:36:56;;;;;;;7.77;2.97;;;;;;;;;;4968847;28;20625;-82
2022/09/19 12:39:27;;;;;;;10.10;2.67;;;;;;;;;;4965795;28;20230;-82
2022/09/19 12:41:58;;;;;;;9.33;2.63;;;;;;;;;;4970229;28;20229;-83
2022/09/19 12:44:32;;;;;;;9.87;2.40;;;;;;;;;;4966003;28;20599;-83
2022/09/19 12:47:06;;;;;;;7.70;2.40;;;;;;;;;;4967805;28;20206;-82
2022/09/19 12:49:36;;;;;;;7.87;2.33;;;;;;;;;;4966148;28;20289;-82
2022/09/19 12:52:08;;;;;;;9.90;2.30;;;;;;;;;;4968810;28;20700;-82
2022/09/19 12:54:39;;;;;;;10.67;2.00;;;;;;;;;;4961411;28;20198;-83
2022/09/19 12:57:10;;;;;;;8.57;2.17;;;;;;;;;;4999107;23;20684;-86
2022/09/19 12:59:37;;;;;;;5.53;2.17;;;;;;;;;;4980414;28;20205;-85
2022/09/19 13:02:15;;;;;;;7.47;2.37;;;;;;;;;;4983281;28;20212;-86
2022/09/19 13:04:45;;;;;;;5.53;1.80;;;;;;;;;;4981362;28;20231;-85
2022/09/19 13:07:18;;;;;;;12.33;2.40;;;;;;;;;;4980791;28;20227;-86
2022/09/19 13:09:50;;;;;;;7.33;1.83;;;;;;;;;;4983095;28;20215;-83
2022/09/19 13:12:20;;;;;;;9.27;2.10;;;;;;;;;;4985031;28;20593;-85
2022/09/19 13:14:50;;;;;;;4.83;1.70;;;;;;;;;;4985466;28;20213;-86
2022/09/19 13:25:52;;;;;;;8.60;1.50;;;;;;;;;;4992583;28;20205;-86
2022/09/19 13:28:34;;;;;;;6.47;1.57;;;;;;;;;;4985783;28;20205;-87
2022/09/19 13:31:11;;;;;;;10.40;1.17;;;;;;;;;;4989048;28;20197;-86
2022/09/19 13:33:44;;;;;;;8.60;1.30;;;;;;;;;;4983916;28;20197;-83
2022/09/19 13:36:12;;;;;;;6.67;1.27;;;;;;;;;;4986069;28;20232;-84
2022/09/19 13:38:40;;;;;;;4.30;1.10;;;;;;;;;;4985106;28;20201;-84
2022/09/19 13:41:12;;;;;;;2.23;0.90;;;;;;;;;;4987497;28;20737;-87
2022/09/19 13:43:56;;;;;;;5.13;0.93;;;;;;;;;;4978016;28;20237;-85
2022/09/19 13:46:27;;;;;;;5.77;1.20;;;;;;;;;;4985222;28;20232;-85
2022/09/19 13:48:59;;;;;;;8.90;1.60;;;;;;;;;;4979885;28;20284;-84
2022/09/19 13:51:31;;;;;;;7.77;1.10;;;;;;;;;;4985347;28;20205;-84
2022/09/19 13:54:13;;;;;;;5.17;0.87;;;;;;;;;;4997748;28;20205;-83
2022/09/19 13:56:41;;;;;;;1.63;0.93;;;;;;;;;;4985060;28;20225;-81
2022/09/19 13:59:17;;;;;;;3.77;0.70;;;;;;;;;;5004730;28;20716;-82
2022/09/19 14:01:55;;;;;;;5.10;0.73;;;;;;;;;;4996977;28;20285;-85
2022/09/19 14:07:19;;;;;;;3.13;0.80;;;;;;;;;;4994765;28;20343;-85
2022/09/19 14:09:47;;;;;;;2.13;0.50;;;;;;;;;;4988533;28;20204;-85
2022/09/19 14:12:47;;;;;;;3.70;0.60;;;;;;;;;;4989667;28;20209;-86
2022/09/19 14:15:48;;;;;;;8.83;1.00;;;;;;;;;;4911165;29;20219;-84
2022/09/19 14:18:42;;;;;;;3.40;0.73;;;;;;;;;;4910558;29;20235;-82
2022/09/19 14:21:15;;;;;;;8.17;0.70;;;;;;;;;;4976525;28;20627;-83
2022/09/19 14:23:43;;;;;;;2.50;0.87;;;;;;;;;;4980639;28;20292;-85
2022/09/19 14:26:28;;;;;;;6.70;0.73;;;;;;;;;;4981625;28;20228;-84
2022/09/19 14:29:05;;;;;;;7.87;0.70;;;;;;;;;;4986926;28;20201;-82
2022/09/19 14:31:39;;;;;;;7.57;0.60;;;;;;;;;;4986737;28;20626;-83
2022/09/19 14:34:38;;;;;;;4.83;0.73;;;;;;;;;;4978107;28;20346;-86
2022/09/19 14:37:26;;;;;;;7.40;1.50;;;;;;;;;;4923472;29;20266;-85
2022/09/19 14:40:01;;;;;;;3.20;0.50;;;;;;;;;;4975152;28;20214;-80
2022/09/19 14:42:43;;;;;;;2.97;0.40;;;;;;;;;;4984386;28;20323;-85
2022/09/19 14:45:34;;;;;;;6.73;0.90;;;;;;;;;;4983187;28;20229;-82
2022/09/19 14:48:04;;;;;;;1.30;0.53;;;;;;;;;;4981587;28;20247;-84
2022/09/19 14:50:35;;;;;;;2.50;0.30;;;;;;;;;;4987063;28;20224;-82
2022/09/19 14:53:13;;;;;;;2.33;0.30;;;;;;;;;;4991311;28;20209;-81
2022/09/19 14:55:48;;;;;;;1.87;0.50;;;;;;;;;;4981644;28;20209;-83
2022/09/19 14:58:23;;;;;;;2.47;0.50;;;;;;;;;;4988654;28;20294;-82
2022/09/19 15:00:55;;;;;;;2.00;0.50;;;;;;;;;;4994193;28;20208;-85
2022/09/19 15:03:22;;;;;;;3.60;0.40;;;;;;;;;;4991860;28;20264;-86
2022/09/19 15:05:50;;;;;;;2.67;0.40;;;;;;;;;;4984685;28;20325;-85
2022/09/19 15:08:25;;;;;;;2.33;0.50;;;;;;;;;;4980466;28;20204;-86
2022/09/19 15:11:04;;;;;;;2.20;0.80;;;;;;;;;;4986338;28;20196;-87
2022/09/19 15:13:33;;;;;;;1.53;0.50;;;;;;;;;;4987196;28;20209;-85
2022/09/19 15:16:02;;;;;;;3.93;0.53;;;;;;;;;;4981807;28;20679;-86
2022/09/19 15:18:31;;;;;;;2.53;0.70;;;;;;;;;;4988582;28;20302;-84
2022/09/19 15:23:48;;;;;;;5.53;0.90;;;;;;;;;;4996501;28;20248;-85
2022/09/19 15:26:23;;;;;;;4.37;0.77;;;;;;;;;;4992200;28;20229;-84
2022/09/19 15:28:58;;;;;;;1.90;0.50;;;;;;;;;;5006554;28;20212;-81
2022/09/19 15:31:30;;;;;;;3.80;0.50;;;;;;;;;;5005243;28;20261;-81
2022/09/19 15:34:03;;;;;;;2.97;0.60;;;;;;;;;;4992263;28;20652;-86
2022/09/19 15:36:33;;;;;;;4.90;0.50;;;;;;;;;;4989511;28;20272;-83
2022/09/19 15:39:01;;;;;;;1.33;0.60;;;;;;;;;;4986603;28;20281;-84
2022/09/19 15:41:30;;;;;;;2.93;0.60;;;;;;;;;;4987655;28;20205;-84
2022/09/19 15:44:07;;;;;;;3.43;0.40;;;;;;;;;;4991798;28;20217;-85
2022/09/19 15:46:46;;;;;;;2.97;0.50;;;;;;;;;;4993694;28;20224;-85
2022/09/19 15:49:30;;;;;;;4.10;0.70;;;;;;;;;;4992547;28;20205;-84
2022/09/19 15:52:00;;;;;;;3.30;0.87;;;;;;;;;;4986835;28;20254;-86
2022/09/19 15:54:30;;;;;;;2.00;0.60;;;;;;;;;;4986166;28;20204;-86
2022/09/19 15:57:02;;;;;;;3.03;0.50;;;;;;;;;;4990185;28;20554;-84
2022/09/19 15:59:32;;;;;;;1.80;0.50;;;;;;;;;;4989441;28;20710;-86
2022/09/19 16:02:05;;;;;;;3.20;0.80;;;;;;;;;;4992780;28;20224;-85
2022/09/19 16:04:35;;;;;;;3.73;0.77;;;;;;;;;;4994560;28;20220;-83
2022/09/19 16:10:16;;;;;;;1.93;0.50;;;;;;;;;;4989450;28;20285;-82
2022/09/19 16:12:46;;;;;;;2.93;0.80;;;;;;;;;;4992212;28;20813;-84
2022/09/19 16:15:24;;;;;;;1.47;0.47;;;;;;;;;;4989449;28;20582;-82
2022/09/19 16:18:21;;;;;;;3.63;0.73;;;;;;;;;;4992823;28;20986;-84
2022/09/19 16:20:51;;;;;;;6.53;0.90;;;;;;;;;;4919530;29;20219;-85
2022/09/19 16:23:20;;;;;;;3.00;0.80;;;;;;;;;;4971000;28;20770;-85
2022/09/19 16:25:50;;;;;;;6.07;1.07;;;;;;;;;;4992783;28;20233;-82
2022/09/19 16:28:19;;;;;;;5.03;0.80;;;;;;;;;;4984732;28;20227;-85
2022/09/19 16:30:51;;;;;;;4.77;0.63;;;;;;;;;;4983140;28;20213;-82
2022/09/19 16:33:18;;;;;;;1.53;0.77;;;;;;;;;;4983349;28;20400;-84
2022/09/19 16:35:46;;;;;;;5.23;1.37;;;;;;;;;;4980318;28;20683;-85
2022/09/19 16:38:20;;;;;;;3.80;1.10;;;;;;;;;;4981309;28;20243;-85
2022/09/19 16:40:54;;;;;;;7.30;1.27;;;;;;;;;;4987264;28;20255;-82
2022/09/19 16:43:39;;;;;;;3.67;0.80;;;;;;;;;;4996320;28;20196;-85